Flight Track Log - Related Links

Times and Time Zones

All times are in EDT time to prevent confusion due to time zone crossing. See the SKW4569 flight status page for this flight to view local times or setup timezone preferences in your user account.

Time Position Orientation Groundspeed Altitude Reporting Facility
EDT Latitude Longitude Course Direction KTS MPH feet Rate Location/Type
Sun 04:24:28 PM 34.1756 -118.3561 54° Northeast 173 199 1,900  Level Los Angeles Center
Sun 04:25:30 PM 34.1464 -118.4072 235° Southwest 202 232 4,100 2,468 Climbing Los Angeles Center
Sun 04:26:32 PM 34.1978 -118.4464 328° Northwest 235 270 7,000 2,784 Climbing Los Angeles Center
Sun 04:27:00 PM 34.4020 -118.4127 59° Northeast  Level FlightAware Approximate
Sun 04:27:35 PM 34.2628 -118.4483 359° North 242 278 9,900  Level Los Angeles Center
Sun 04:28:00 PM 34.4642 -118.2954 51° Northeast  Level FlightAware Approximate
Sun 04:28:37 PM 34.3303 -118.4097 25° Northeast 265 305 11,900  Level Los Angeles Center
Sun 04:29:00 PM 34.5372 -118.1881 54° Northeast  Level FlightAware Approximate
Sun 04:29:39 PM 34.4208 -118.3583 25° Northeast 297 342 14,600  Level Los Angeles Center
Sun 04:30:41 PM 34.4881 -118.2936 38° Northeast 315 362 16,500 1,694 Climbing Los Angeles Center
Sun 04:31:43 PM 34.5439 -118.2050 53° Northeast 328 377 18,100 1,403 Climbing Los Angeles Center
Sun 04:32:45 PM 34.6083 -118.1019 53° Northeast 348 400 19,400 1,161 Climbing Los Angeles Center
Sun 04:33:47 PM 34.6400 -117.9811 72° East 382 440 20,500 1,306 Climbing Los Angeles Center
Sun 04:34:49 PM 34.6544 -117.8522 82° East 388 447 22,100 1,488 Climbing Los Angeles Center
Sun 04:35:52 PM 34.6736 -117.7231 80° East 389 448 23,600 1,200 Climbing Los Angeles Center
Sun 04:36:54 PM 34.7078 -117.5944 72° East 400 460 24,600 968 Climbing Los Angeles Center
Sun 04:37:56 PM 34.7469 -117.4358 73° East 409 471 25,600 871 Climbing Los Angeles Center
Sun 04:38:58 PM 34.7825 -117.2986 72° East 428 493 26,400 823 Climbing Los Angeles Center
Sun 04:40:00 PM 34.8181 -117.1583 73° East 433 498 27,300 774 Climbing Los Angeles Center
Sun 04:41:02 PM 34.8533 -117.0172 73° East 437 503 28,000 387 Climbing Los Angeles Center
Sun 04:42:04 PM 34.8897 -116.8708 73° East 449 517 28,100 484 Climbing Los Angeles Center
Sun 04:43:06 PM 34.9353 -116.6886 73° East 465 535 29,000 432 Climbing Los Angeles Center
Sun 04:44:09 PM 34.9872 -116.5453 66° East 467 537 29,000  Level Los Angeles Center
Sun 04:45:11 PM 35.0808 -116.4289 45° Northeast 481 554 29,000 387 Level Los Angeles Center
Sun 04:46:13 PM 35.1747 -116.3111 46° Northeast 483 556 29,800 871 Climbing Los Angeles Center
Sun 04:47:15 PM 35.2667 -116.1975 45° Northeast 474 545 30,800 581 Climbing Los Angeles Center
Sun 04:48:17 PM 35.3731 -116.0589 47° Northeast 468 539 31,000 97 Climbing Los Angeles Center
Sun 04:49:19 PM 35.4683 -115.9436 45° Northeast 478 550 31,000  Level Los Angeles Center
Sun 04:50:21 PM 35.5747 -115.8281 41° Northeast 486 559 31,000  Level Los Angeles Center
Sun 04:51:24 PM 35.6850 -115.7369 34° Northeast 477 549 31,000  Level Los Angeles Center
Sun 04:52:26 PM 35.7939 -115.6453 34° Northeast 477 549 31,000  Level Los Angeles Center
Sun 04:53:28 PM 35.9014 -115.5544 34° Northeast 473 544 31,000 194 Level Los Angeles Center
Sun 04:54:30 PM 36.0286 -115.4483 34° Northeast 464 534 31,400 484 Climbing Los Angeles Center
Sun 04:55:32 PM 36.1350 -115.3589 34° Northeast 463 533 32,000 581 Climbing Los Angeles Center
Sun 04:56:34 PM 36.2392 -115.2694 35° Northeast 463 533 32,600 484 Climbing Los Angeles Center
Sun 04:57:36 PM 36.3433 -115.1783 35° Northeast 464 534 33,000 192 Climbing Los Angeles Center
Sun 04:58:39 PM 36.4483 -115.0881 35° Northeast 463 533 33,000  Level Los Angeles Center
Sun 04:59:41 PM 36.5750 -114.9778 35° Northeast 463 533 33,000  Level Los Angeles Center
Sun 05:00:43 PM 36.6811 -114.8864 35° Northeast 466 536 33,000  Level Los Angeles Center
Sun 05:01:45 PM 36.7947 -114.7886 35° Northeast 464 534 33,000  Level Los Angeles Center
Sun 05:02:47 PM 36.9008 -114.6961 35° Northeast 464 534 33,000  Level Los Angeles Center
Sun 05:03:49 PM 37.0053 -114.6047 35° Northeast 461 531 33,000  Level Los Angeles Center
Sun 05:04:51 PM 37.1203 -114.5011 36° Northeast 457 526 33,000  Level Los Angeles Center
Sun 05:05:53 PM 37.2256 -114.4103 34° Northeast 457 526 33,000  Level Los Angeles Center
Sun 05:06:56 PM 37.3281 -114.3189 35° Northeast 456 525 33,000  Level Los Angeles Center
Sun 05:07:58 PM 37.4394 -114.2203 35° Northeast 455 524 33,000  Level Los Angeles Center
Sun 05:09:00 PM 37.5436 -114.1283 35° Northeast 455 524 33,000  Level Los Angeles Center
Sun 05:10:02 PM 37.6469 -114.0364 35° Northeast 455 524 33,000  Level Los Angeles Center
Sun 05:11:04 PM 37.7517 -113.9422 35° Northeast 457 526 33,000  Level Los Angeles Center
Sun 05:12:10 PM 37.8769 -113.8303 35° Northeast 457 526 33,000  Level Salt Lake Center
Sun 05:13:12 PM 37.9811 -113.7353 36° Northeast 458 527 33,000  Level Salt Lake Center
Sun 05:14:14 PM 38.0850 -113.6403 36° Northeast 458 527 33,000  Level Salt Lake Center
Sun 05:15:15 PM 38.1908 -113.5439 36° Northeast 465 535 33,000  Level Salt Lake Center
Sun 05:16:17 PM 38.2956 -113.4489 35° Northeast 464 534 33,000  Level Salt Lake Center
Sun 05:17:19 PM 38.3992 -113.3525 36° Northeast 463 533 33,000  Level Salt Lake Center
Sun 05:18:21 PM 38.5031 -113.2564 36° Northeast 462 532 33,000  Level Salt Lake Center
Sun 05:19:22 PM 38.6064 -113.1617 36° Northeast 461 531 33,000 -293 Level Salt Lake Center
Sun 05:20:24 PM 38.7311 -113.0453 36° Northeast 461 531 32,400 -484 Descending Salt Lake Center
Sun 05:21:26 PM 38.8383 -112.9453 36° Northeast 470 541 32,000 -194 Descending Salt Lake Center
Sun 05:22:28 PM 38.9414 -112.8494 36° Northeast 464 534 32,000  Level Salt Lake Center
Sun 05:23:30 PM 39.0419 -112.7544 36° Northeast 454 522 32,000  Level Salt Lake Center
Sun 05:24:31 PM 39.1394 -112.6619 36° Northeast 442 509 32,000 -1,317 Level Salt Lake Center
Sun 05:25:33 PM 39.2542 -112.5539 36° Northeast 444 511 29,300 -2,758 Descending Salt Lake Center
Sun 05:26:35 PM 39.3617 -112.4681 32° Northeast 454 522 26,300 -2,903 Descending Salt Lake Center
Sun 05:27:37 PM 39.4703 -112.4119 22° Northeast 426 490 23,300 -2,903 Descending Salt Lake Center
Sun 05:28:39 PM 39.5714 -112.3517 25° Northeast 405 466 20,300 -2,855 Descending Salt Lake Center
Sun 05:29:41 PM 39.6697 -112.2969 23° Northeast 386 444 17,400 -2,274 Descending Salt Lake Center
Sun 05:30:43 PM 39.7608 -112.2428 25° Northeast 364 419 15,600 -1,309 Descending Salt Lake Center
Sun 05:31:31 PM 39.8400 -112.2083 18° North 323 372 15,000 -689 Descending Salt Lake Center
Sun 05:31:44 PM 39.8600 -112.1856 41° Northeast 326 375 14,900  Descending Salt Lake Center
Sun 05:32:08 PM 39.8900 -112.1778 11° North 316 364 15,000 97 Climbing Salt Lake Center
Sun 05:32:46 PM 39.9389 -112.1394 31° Northeast 312 359 15,000  Level Salt Lake Center
Sun 05:33:14 PM 39.9744 -112.1272 15° North 309 356 15,000  Level Salt Lake Center
Sun 05:33:48 PM 40.0175 -112.0931 31° Northeast 312 359 15,000 -590 Level Salt Lake Center
Sun 05:34:15 PM 40.0553 -112.0781 17° North 313 360 14,400 -1,355 Descending Salt Lake Center
Sun 05:34:50 PM 40.0956 -112.0456 32° Northeast 311 358 13,600 -1,574 Descending Salt Lake Center
Sun 05:35:16 PM 40.1358 -112.0283 18° North 302 348 12,800 -1,548 Descending Salt Lake Center
Sun 05:35:52 PM 40.1711 -112.0000 32° Northeast 300 345 12,000 -1,522 Descending Salt Lake Center
Sun 05:36:23 PM 40.2164 -111.9789 20° North 299 344 11,100 -968 Descending Salt Lake Center
Sun 05:36:54 PM 40.2458 -111.9542 33° Northeast 299 344 11,000 -98 Descending Salt Lake Center
Sun 05:37:24 PM 40.2961 -111.9464 North 309 356 11,000  Level Salt Lake Center
Sun 05:37:56 PM 40.3286 -111.9367 13° North 305 351 11,000  Level Salt Lake Center
Sun 05:38:31 PM 40.3911 -111.9367 360° North 300 345 11,000  Level Salt Lake Center
Sun 05:38:58 PM 40.4278 -111.9342 North 301 346 11,000 -218 Level Salt Lake Center
Sun 05:39:26 PM 40.4614 -111.9439 348° North 261 300 10,800 -787 Descending Salt Lake Center
Sun 05:39:59 PM 40.4989 -111.9425 North 253 291 10,200 -1,444 Descending Salt Lake Center
Sun 05:40:20 PM 40.5267 -111.9472 353° North 247 284 9,500 -1,935 Descending Salt Lake Center
Sun 05:41:01 PM 40.5711 -111.9508 356° North 258 297 8,200 -1,418 Descending Salt Lake Center
Sun 05:41:15 PM 40.5911 -111.9564 348° North 265 305 8,200 -677 Level Salt Lake Center
Sun 05:42:03 PM 40.6353 -111.9572 359° North 222 255 7,500 -885 Descending Salt Lake Center
Sun 05:42:16 PM 40.6547 -111.9631 347° North 208 239 7,300 -968 Descending Salt Lake Center
Sun 05:43:05 PM 40.6914 -111.9625 North 204 235 6,500 -1,343 Descending Salt Lake Center
Sun 05:43:23 PM 40.7094 -111.9669 349° North 178 205 5,800 -1,315 Descending Salt Lake Center
Sun 05:44:18 PM 40.7469 -111.9714 355° North 138 159 4,900 -906 Descending Salt Lake Center
Sun 05:45:09 PM 40.7811 -111.9736 357° North 144 166 4,200 -824 Descending Salt Lake Center

Login

Don't have an account? Register now (free) for customized features, flight alerts, and more!